Earling, Iowa
Current Conditions -  °F | °C
As of 4:15 PM on Tuesday 21 Oct 2014 (Local Time) from KDNS Reporting Station
Clear Clear  
Wind Chill: 73°   Ceiling: Unl
Heat Index: 73°   Visibility: 10mi
Dew Point: 39°   Wind: 7mph
Humidity: 29%   Direction: 170°S
Pressure: 30.03"   Gusts: NA
Location:  41.78°N, 95.42°W
Report Text: KDNS 212115Z AUTO 17006KT 10SM CLR 23/04 A3003 RMK AO2
Loading
Personal Weather Stations






























Interactive Weather Map
Tropical Storm Tracking
New forecast layout! Learn more

10-Day Weather Forecast

Advertisements
Track Severe Weather on mobile